sensor_id;sensor_type;location;lat;lon;timestamp;temperature;humidity
23497;DHT22;11925;48.122;11.560;2022-09-27T13:44:01;14.20;95.50
23497;DHT22;11925;48.122;11.560;2022-09-27T13:46:47;14.30;95.70
23497;DHT22;11925;48.122;11.560;2022-09-27T13:49:25;14.20;95.70
23497;DHT22;11925;48.122;11.560;2022-09-27T13:52:18;14.30;95.50
23497;DHT22;11925;48.122;11.560;2022-09-27T13:55:01;14.30;96.10
23497;DHT22;11925;48.122;11.560;2022-09-27T13:57:41;14.30;96.00
23497;DHT22;11925;48.122;11.560;2022-09-27T14:00:17;14.20;96.20
23497;DHT22;11925;48.122;11.560;2022-09-27T14:03:01;14.30;96.00
23497;DHT22;11925;48.122;11.560;2022-09-27T14:05:37;14.20;95.90
23497;DHT22;11925;48.122;11.560;2022-09-27T14:08:17;14.20;95.80
23497;DHT22;11925;48.122;11.560;2022-09-27T14:10:47;14.20;95.80
23497;DHT22;11925;48.122;11.560;2022-09-27T14:13:18;14.20;96.30
23497;DHT22;11925;48.122;11.560;2022-09-27T14:15:58;14.20;96.50
23497;DHT22;11925;48.122;11.560;2022-09-27T14:18:29;14.20;96.60
23497;DHT22;11925;48.122;11.560;2022-09-27T14:21:11;14.20;96.20
23497;DHT22;11925;48.122;11.560;2022-09-27T14:24:29;14.20;96.30
23497;DHT22;11925;48.122;11.560;2022-09-27T14:27:08;14.20;96.70
23497;DHT22;11925;48.122;11.560;2022-09-27T14:29:43;14.20;96.30
23497;DHT22;11925;48.122;11.560;2022-09-27T14:32:17;14.20;96.20
23497;DHT22;11925;48.122;11.560;2022-09-27T14:35:06;14.20;96.00
23497;DHT22;11925;48.122;11.560;2022-09-27T14:37:58;14.10;96.00
23497;DHT22;11925;48.122;11.560;2022-09-27T14:40:43;14.20;96.00
23497;DHT22;11925;48.122;11.560;2022-09-27T14:43:15;14.10;95.90
23497;DHT22;11925;48.122;11.560;2022-09-27T14:45:46;14.10;95.50
23497;DHT22;11925;48.122;11.560;2022-09-27T14:48:19;14.20;95.90
23497;DHT22;11925;48.122;11.560;2022-09-27T14:50:55;14.10;95.40
23497;DHT22;11925;48.122;11.560;2022-09-27T14:53:39;14.20;95.40
23497;DHT22;11925;48.122;11.560;2022-09-27T14:56:11;14.10;95.50
23497;DHT22;11925;48.122;11.560;2022-09-27T14:58:44;14.10;95.20
23497;DHT22;11925;48.122;11.560;2022-09-27T15:01:17;14.20;95.50
23497;DHT22;11925;48.122;11.560;2022-09-27T15:03:46;14.20;95.60
23497;DHT22;11925;48.122;11.560;2022-09-27T15:06:15;14.10;95.60
23497;DHT22;11925;48.122;11.560;2022-09-27T15:08:43;14.20;95.80
23497;DHT22;11925;48.122;11.560;2022-09-27T15:11:15;14.20;95.70
23497;DHT22;11925;48.122;11.560;2022-09-27T15:13:44;14.20;95.80
23497;DHT22;11925;48.122;11.560;2022-09-27T15:16:17;14.20;96.00
23497;DHT22;11925;48.122;11.560;2022-09-27T15:18:48;14.10;96.10
23497;DHT22;11925;48.122;11.560;2022-09-27T15:21:28;14.20;96.20
23497;DHT22;11925;48.122;11.560;2022-09-27T15:23:57;14.20;96.20
23497;DHT22;11925;48.122;11.560;2022-09-27T15:26:35;14.20;96.20
23497;DHT22;11925;48.122;11.560;2022-09-27T15:29:04;14.20;95.80
23497;DHT22;11925;48.122;11.560;2022-09-27T15:31:35;14.20;96.30
23497;DHT22;11925;48.122;11.560;2022-09-27T15:34:04;14.20;96.30
23497;DHT22;11925;48.122;11.560;2022-09-27T15:36:53;14.20;96.20
23497;DHT22;11925;48.122;11.560;2022-09-27T15:39:27;14.20;95.90
23497;DHT22;11925;48.122;11.560;2022-09-27T15:42:01;14.20;95.90
23497;DHT22;11925;48.122;11.560;2022-09-27T15:44:47;14.20;96.00
23497;DHT22;11925;48.122;11.560;2022-09-27T15:47:42;14.20;95.80
23497;DHT22;11925;48.122;11.560;2022-09-27T15:50:38;14.20;95.90
23497;DHT22;11925;48.122;11.560;2022-09-27T15:53:07;14.30;96.20
23497;DHT22;11925;48.122;11.560;2022-09-27T15:55:40;14.20;96.20
23497;DHT22;11925;48.122;11.560;2022-09-27T15:58:13;14.20;96.10
23497;DHT22;11925;48.122;11.560;2022-09-27T16:00:53;14.20;96.10
23497;DHT22;11925;48.122;11.560;2022-09-27T16:03:25;14.20;96.10
23497;DHT22;11925;48.122;11.560;2022-09-27T16:05:55;14.20;95.90
23497;DHT22;11925;48.122;11.560;2022-09-27T16:08:24;14.20;95.90
23497;DHT22;11925;48.122;11.560;2022-09-27T16:10:53;14.20;95.90
23497;DHT22;11925;48.122;11.560;2022-09-27T16:13:23;14.30;96.00
23497;DHT22;11925;48.122;11.560;2022-09-27T16:15:59;14.30;96.60
23497;DHT22;11925;48.122;11.560;2022-09-27T16:18:30;14.30;97.10
23497;DHT22;11925;48.122;11.560;2022-09-27T16:20:59;14.30;97.20
23497;DHT22;11925;48.122;11.560;2022-09-27T16:23:27;14.30;97.30
23497;DHT22;11925;48.122;11.560;2022-09-27T16:25:57;14.40;97.50
23497;DHT22;11925;48.122;11.560;2022-09-27T16:28:25;14.50;97.70
23497;DHT22;11925;48.122;11.560;2022-09-27T16:30:53;14.60;97.50
23497;DHT22;11925;48.122;11.560;2022-09-27T16:33:21;14.70;97.50
23497;DHT22;11925;48.122;11.560;2022-09-27T16:35:51;14.80;97.30
23497;DHT22;11925;48.122;11.560;2022-09-27T16:38:20;14.80;97.40
23497;DHT22;11925;48.122;11.560;2022-09-27T16:40:49;14.80;97.30
23497;DHT22;11925;48.122;11.560;2022-09-27T16:43:17;14.80;97.20
23497;DHT22;11925;48.122;11.560;2022-09-27T16:45:45;14.90;97.10
23497;DHT22;11925;48.122;11.560;2022-09-27T16:48:14;15.10;97.00
23497;DHT22;11925;48.122;11.560;2022-09-27T16:50:42;15.10;96.50
23497;DHT22;11925;48.122;11.560;2022-09-27T16:53:29;15.10;96.50
23497;DHT22;11925;48.122;11.560;2022-09-27T16:55:58;15.20;96.50
23497;DHT22;11925;48.122;11.560;2022-09-27T16:58:28;15.10;96.80
23497;DHT22;11925;48.122;11.560;2022-09-27T17:00:57;15.00;97.10
23497;DHT22;11925;48.122;11.560;2022-09-27T17:03:26;14.90;97.00
23497;DHT22;11925;48.122;11.560;2022-09-27T17:05:59;14.80;97.00
23497;DHT22;11925;48.122;11.560;2022-09-27T17:08:29;14.60;97.00
23497;DHT22;11925;48.122;11.560;2022-09-27T17:10:57;14.60;97.30
23497;DHT22;11925;48.122;11.560;2022-09-27T17:13:26;14.60;97.40
23497;DHT22;11925;48.122;11.560;2022-09-27T17:15:54;14.50;97.40
23497;DHT22;11925;48.122;11.560;2022-09-27T17:18:23;14.40;97.70
23497;DHT22;11925;48.122;11.560;2022-09-27T17:20:51;14.40;97.70
23497;DHT22;11925;48.122;11.560;2022-09-27T17:23:19;14.40;97.80
23497;DHT22;11925;48.122;11.560;2022-09-27T17:25:49;14.40;98.00
23497;DHT22;11925;48.122;11.560;2022-09-27T17:28:18;14.40;98.30
23497;DHT22;11925;48.122;11.560;2022-09-27T17:30:46;14.40;98.60
23497;DHT22;11925;48.122;11.560;2022-09-27T17:33:14;14.40;98.60
23497;DHT22;11925;48.122;11.560;2022-09-27T17:35:42;14.40;98.90
23497;DHT22;11925;48.122;11.560;2022-09-27T17:38:13;14.30;99.00
23497;DHT22;11925;48.122;11.560;2022-09-27T17:40:42;14.30;99.20
23497;DHT22;11925;48.122;11.560;2022-09-27T17:43:11;14.30;99.30
23497;DHT22;11925;48.122;11.560;2022-09-27T17:45:41;14.30;99.40
23497;DHT22;11925;48.122;11.560;2022-09-27T17:48:09;14.30;99.60
23497;DHT22;11925;48.122;11.560;2022-09-27T17:50:55;14.30;99.50
23497;DHT22;11925;48.122;11.560;2022-09-27T17:53:24;14.30;99.50
23497;DHT22;11925;48.122;11.560;2022-09-27T17:55:52;14.30;99.60
23497;DHT22;11925;48.122;11.560;2022-09-27T17:58:28;14.20;99.70
23497;DHT22;11925;48.122;11.560;2022-09-27T18:01:00;14.20;99.80
23497;DHT22;11925;48.122;11.560;2022-09-27T18:03:29;14.20;99.80
23497;DHT22;11925;48.122;11.560;2022-09-27T18:05:57;14.20;99.90
23497;DHT22;11925;48.122;11.560;2022-09-27T18:08:27;14.20;99.90
23497;DHT22;11925;48.122;11.560;2022-09-27T18:11:03;14.20;99.90
23497;DHT22;11925;48.122;11.560;2022-09-27T18:13:33;14.20;99.90
23497;DHT22;11925;48.122;11.560;2022-09-27T18:16:07;14.10;99.80
23497;DHT22;11925;48.122;11.560;2022-09-27T18:18:38;14.10;99.80
23497;DHT22;11925;48.122;11.560;2022-09-27T18:21:08;14.10;99.80
23497;DHT22;11925;48.122;11.560;2022-09-27T18:23:37;14.10;99.70
23497;DHT22;11925;48.122;11.560;2022-09-27T18:26:06;14.10;99.90
23497;DHT22;11925;48.122;11.560;2022-09-27T18:28:37;14.10;99.80
23497;DHT22;11925;48.122;11.560;2022-09-27T18:31:07;14.10;99.80
23497;DHT22;11925;48.122;11.560;2022-09-27T18:33:36;14.10;99.80
23497;DHT22;11925;48.122;11.560;2022-09-27T18:36:06;14.10;99.70
23497;DHT22;11925;48.122;11.560;2022-09-27T18:38:36;14.10;99.80
23497;DHT22;11925;48.122;11.560;2022-09-27T18:41:05;14.10;99.60
23497;DHT22;11925;48.122;11.560;2022-09-27T18:43:35;14.00;99.50
23497;DHT22;11925;48.122;11.560;2022-09-27T18:46:06;14.10;99.50
23497;DHT22;11925;48.122;11.560;2022-09-27T18:48:55;14.00;99.40
23497;DHT22;11925;48.122;11.560;2022-09-27T18:51:25;14.20;99.80
23497;DHT22;11925;48.122;11.560;2022-09-27T18:53:54;14.30;99.20
23497;DHT22;11925;48.122;11.560;2022-09-27T18:56:23;14.40;99.00
23497;DHT22;11925;48.122;11.560;2022-09-27T18:58:54;14.50;98.70
23497;DHT22;11925;48.122;11.560;2022-09-27T19:01:23;14.50;98.50
23497;DHT22;11925;48.122;11.560;2022-09-27T19:03:52;14.60;98.60
23497;DHT22;11925;48.122;11.560;2022-09-27T19:06:21;14.60;98.60
23497;DHT22;11925;48.122;11.560;2022-09-27T19:08:52;14.70;98.50
23497;DHT22;11925;48.122;11.560;2022-09-27T19:11:21;14.80;98.30
23497;DHT22;11925;48.122;11.560;2022-09-27T19:13:51;14.80;98.40
23497;DHT22;11925;48.122;11.560;2022-09-27T19:16:22;14.70;98.30
23497;DHT22;11925;48.122;11.560;2022-09-27T19:18:50;14.70;98.30
23497;DHT22;11925;48.122;11.560;2022-09-27T19:21:21;14.70;98.40
23497;DHT22;11925;48.122;11.560;2022-09-27T19:23:50;14.60;98.60
23497;DHT22;11925;48.122;11.560;2022-09-27T19:26:20;14.50;98.40
23497;DHT22;11925;48.122;11.560;2022-09-27T19:28:49;14.40;98.70
23497;DHT22;11925;48.122;11.560;2022-09-27T19:31:21;14.30;98.80
23497;DHT22;11925;48.122;11.560;2022-09-27T19:33:50;14.30;98.90
23497;DHT22;11925;48.122;11.560;2022-09-27T19:36:26;14.20;99.00
23497;DHT22;11925;48.122;11.560;2022-09-27T19:38:54;14.20;99.10
23497;DHT22;11925;48.122;11.560;2022-09-27T19:41:25;14.20;99.10
23497;DHT22;11925;48.122;11.560;2022-09-27T19:43:54;14.20;99.10
23497;DHT22;11925;48.122;11.560;2022-09-27T19:46:24;14.20;99.10
23497;DHT22;11925;48.122;11.560;2022-09-27T19:48:53;14.20;99.20
23497;DHT22;11925;48.122;11.560;2022-09-27T19:51:24;14.20;99.10
23497;DHT22;11925;48.122;11.560;2022-09-27T19:53:53;14.20;99.20
23497;DHT22;11925;48.122;11.560;2022-09-27T19:56:22;14.20;99.10
23497;DHT22;11925;48.122;11.560;2022-09-27T19:58:50;14.20;99.00
23497;DHT22;11925;48.122;11.560;2022-09-27T20:01:20;14.20;99.10
23497;DHT22;11925;48.122;11.560;2022-09-27T20:03:52;14.20;99.00
23497;DHT22;11925;48.122;11.560;2022-09-27T20:06:21;14.20;99.00
23497;DHT22;11925;48.122;11.560;2022-09-27T20:08:50;14.20;99.10
23497;DHT22;11925;48.122;11.560;2022-09-27T20:11:20;14.20;99.20
23497;DHT22;11925;48.122;11.560;2022-09-27T20:13:50;14.20;99.30
23497;DHT22;11925;48.122;11.560;2022-09-27T20:16:20;14.20;99.30
23497;DHT22;11925;48.122;11.560;2022-09-27T20:18:52;14.20;99.30
23497;DHT22;11925;48.122;11.560;2022-09-27T20:21:21;14.20;99.20
23497;DHT22;11925;48.122;11.560;2022-09-27T20:23:51;14.20;99.30
23497;DHT22;11925;48.122;11.560;2022-09-27T20:26:21;14.20;99.30
23497;DHT22;11925;48.122;11.560;2022-09-27T20:28:51;14.20;99.20
23497;DHT22;11925;48.122;11.560;2022-09-27T20:31:22;14.20;99.20
23497;DHT22;11925;48.122;11.560;2022-09-27T20:33:52;14.20;99.20
23497;DHT22;11925;48.122;11.560;2022-09-27T20:36:22;14.20;99.20
23497;DHT22;11925;48.122;11.560;2022-09-27T20:38:52;14.20;99.30
23497;DHT22;11925;48.122;11.560;2022-09-27T20:41:28;14.10;99.50
23497;DHT22;11925;48.122;11.560;2022-09-27T20:43:58;14.20;99.40
23497;DHT22;11925;48.122;11.560;2022-09-27T20:46:27;14.20;99.50
23497;DHT22;11925;48.122;11.560;2022-09-27T20:48:57;14.10;99.50
23497;DHT22;11925;48.122;11.560;2022-09-27T20:51:26;14.10;99.50
23497;DHT22;11925;48.122;11.560;2022-09-27T20:53:55;14.10;99.60
23497;DHT22;11925;48.122;11.560;2022-09-27T20:56:24;14.10;99.70
23497;DHT22;11925;48.122;11.560;2022-09-27T20:58:55;14.10;99.50
23497;DHT22;11925;48.122;11.560;2022-09-27T21:01:24;14.10;99.50
23497;DHT22;11925;48.122;11.560;2022-09-27T21:03:54;14.10;99.50
23497;DHT22;11925;48.122;11.560;2022-09-27T21:06:24;14.10;99.50
23497;DHT22;11925;48.122;11.560;2022-09-27T21:08:53;14.10;99.50
23497;DHT22;11925;48.122;11.560;2022-09-27T21:11:22;14.10;99.50
23497;DHT22;11925;48.122;11.560;2022-09-27T21:13:51;14.10;99.60
23497;DHT22;11925;48.122;11.560;2022-09-27T21:16:21;14.10;99.70
23497;DHT22;11925;48.122;11.560;2022-09-27T21:18:50;14.10;99.90
23497;DHT22;11925;48.122;11.560;2022-09-27T21:21:21;14.10;99.90
23497;DHT22;11925;48.122;11.560;2022-09-27T21:23:55;14.00;99.90
23497;DHT22;11925;48.122;11.560;2022-09-27T21:26:25;14.00;99.90
23497;DHT22;11925;48.122;11.560;2022-09-27T21:28:55;14.10;99.90
23497;DHT22;11925;48.122;11.560;2022-09-27T21:31:25;14.10;99.90
23497;DHT22;11925;48.122;11.560;2022-09-27T21:33:55;14.00;99.90
23497;DHT22;11925;48.122;11.560;2022-09-27T21:36:26;14.00;99.90
23497;DHT22;11925;48.122;11.560;2022-09-27T21:38:57;14.00;99.90
23497;DHT22;11925;48.122;11.560;2022-09-27T21:41:26;14.00;99.90
23497;DHT22;11925;48.122;11.560;2022-09-27T21:43:55;14.00;99.90
23497;DHT22;11925;48.122;11.560;2022-09-27T21:46:25;14.00;99.90
23497;DHT22;11925;48.122;11.560;2022-09-27T21:48:55;14.00;99.90
23497;DHT22;11925;48.122;11.560;2022-09-27T21:51:25;14.00;99.90
23497;DHT22;11925;48.122;11.560;2022-09-27T21:53:56;14.00;99.90
23497;DHT22;11925;48.122;11.560;2022-09-27T21:56:26;14.00;99.90
23497;DHT22;11925;48.122;11.560;2022-09-27T21:58:55;13.90;99.90
23497;DHT22;11925;48.122;11.560;2022-09-27T22:01:25;13.90;99.90
23497;DHT22;11925;48.122;11.560;2022-09-27T22:03:56;13.90;99.90
23497;DHT22;11925;48.122;11.560;2022-09-27T22:06:25;13.90;99.90
23497;DHT22;11925;48.122;11.560;2022-09-27T22:08:56;13.90;99.80
23497;DHT22;11925;48.122;11.560;2022-09-27T22:11:26;13.90;99.90
23497;DHT22;11925;48.122;11.560;2022-09-27T22:13:56;13.90;99.90
23497;DHT22;11925;48.122;11.560;2022-09-27T22:16:25;14.00;99.90
23497;DHT22;11925;48.122;11.560;2022-09-27T22:18:54;13.90;99.90
23497;DHT22;11925;48.122;11.560;2022-09-27T22:21:24;14.00;99.90
23497;DHT22;11925;48.122;11.560;2022-09-27T22:23:53;14.00;99.90
23497;DHT22;11925;48.122;11.560;2022-09-27T22:26:24;14.00;99.90
23497;DHT22;11925;48.122;11.560;2022-09-27T22:28:53;14.00;99.90
23497;DHT22;11925;48.122;11.560;2022-09-27T22:31:22;14.00;99.90
23497;DHT22;11925;48.122;11.560;2022-09-27T22:33:52;14.00;99.90
23497;DHT22;11925;48.122;11.560;2022-09-27T22:36:21;14.00;99.90
23497;DHT22;11925;48.122;11.560;2022-09-27T22:38:51;14.00;99.90
23497;DHT22;11925;48.122;11.560;2022-09-27T22:41:19;14.00;99.90
23497;DHT22;11925;48.122;11.560;2022-09-27T22:43:49;14.00;99.90
23497;DHT22;11925;48.122;11.560;2022-09-27T22:46:19;14.00;99.90
23497;DHT22;11925;48.122;11.560;2022-09-27T22:48:48;14.00;99.90
23497;DHT22;11925;48.122;11.560;2022-09-27T22:51:17;14.00;99.90
23497;DHT22;11925;48.122;11.560;2022-09-27T22:53:45;14.00;99.90
23497;DHT22;11925;48.122;11.560;2022-09-27T22:56:16;14.00;99.90
23497;DHT22;11925;48.122;11.560;2022-09-27T22:58:45;14.00;99.90
23497;DHT22;11925;48.122;11.560;2022-09-27T23:01:17;14.00;99.90
23497;DHT22;11925;48.122;11.560;2022-09-27T23:03:46;14.00;99.90
23497;DHT22;11925;48.122;11.560;2022-09-27T23:06:16;14.00;99.90
23497;DHT22;11925;48.122;11.560;2022-09-27T23:08:45;14.00;99.90
23497;DHT22;11925;48.122;11.560;2022-09-27T23:11:16;14.00;99.90
23497;DHT22;11925;48.122;11.560;2022-09-27T23:13:45;14.00;99.90
23497;DHT22;11925;48.122;11.560;2022-09-27T23:16:17;14.00;99.90
23497;DHT22;11925;48.122;11.560;2022-09-27T23:18:46;14.00;99.90
23497;DHT22;11925;48.122;11.560;2022-09-27T23:21:15;13.90;99.90
23497;DHT22;11925;48.122;11.560;2022-09-27T23:23:44;14.00;99.90
23497;DHT22;11925;48.122;11.560;2022-09-27T23:26:14;13.90;99.90
23497;DHT22;11925;48.122;11.560;2022-09-27T23:28:43;14.00;99.90
23497;DHT22;11925;48.122;11.560;2022-09-27T23:31:12;13.90;99.90
23497;DHT22;11925;48.122;11.560;2022-09-27T23:33:45;14.00;99.90
23497;DHT22;11925;48.122;11.560;2022-09-27T23:36:16;14.00;99.90
23497;DHT22;11925;48.122;11.560;2022-09-27T23:38:46;13.90;99.90
23497;DHT22;11925;48.122;11.560;2022-09-27T23:41:15;14.00;99.90
23497;DHT22;11925;48.122;11.560;2022-09-27T23:43:44;13.90;99.90
23497;DHT22;11925;48.122;11.560;2022-09-27T23:46:14;13.90;99.90
23497;DHT22;11925;48.122;11.560;2022-09-27T23:48:44;13.90;99.90
23497;DHT22;11925;48.122;11.560;2022-09-27T23:51:12;14.00;99.90
23497;DHT22;11925;48.122;11.560;2022-09-27T23:53:40;13.90;99.90
23497;DHT22;11925;48.122;11.560;2022-09-27T23:56:11;13.90;99.90
23497;DHT22;11925;48.122;11.560;2022-09-27T23:58:41;13.90;99.90
